sensor_id;sensor_type;location;lat;lon;timestamp;P1;durP1;ratioP1;P2;durP2;ratioP2
24030;SDS011;12240;51.142;22.486;2023-04-25T00:00:37;13.15;;;6.68;;
24030;SDS011;12240;51.142;22.486;2023-04-25T00:03:05;11.90;;;5.60;;
24030;SDS011;12240;51.142;22.486;2023-04-25T00:05:33;11.73;;;6.07;;
24030;SDS011;12240;51.142;22.486;2023-04-25T00:08:01;12.57;;;6.28;;
24030;SDS011;12240;51.142;22.486;2023-04-25T00:10:31;10.80;;;5.65;;
24030;SDS011;12240;51.142;22.486;2023-04-25T00:12:59;12.55;;;5.95;;
24030;SDS011;12240;51.142;22.486;2023-04-25T00:15:29;11.07;;;6.20;;
24030;SDS011;12240;51.142;22.486;2023-04-25T00:17:58;13.50;;;6.47;;
24030;SDS011;12240;51.142;22.486;2023-04-25T00:20:26;10.48;;;5.60;;
24030;SDS011;12240;51.142;22.486;2023-04-25T00:22:54;14.45;;;6.72;;
24030;SDS011;12240;51.142;22.486;2023-04-25T00:25:23;11.93;;;6.03;;
24030;SDS011;12240;51.142;22.486;2023-04-25T00:27:52;19.08;;;8.10;;
24030;SDS011;12240;51.142;22.486;2023-04-25T00:30:20;14.90;;;6.43;;
24030;SDS011;12240;51.142;22.486;2023-04-25T00:32:48;10.25;;;6.18;;
24030;SDS011;12240;51.142;22.486;2023-04-25T00:35:17;13.57;;;6.40;;
24030;SDS011;12240;51.142;22.486;2023-04-25T00:37:45;20.75;;;7.32;;
24030;SDS011;12240;51.142;22.486;2023-04-25T00:40:13;11.82;;;6.30;;
24030;SDS011;12240;51.142;22.486;2023-04-25T00:42:41;15.57;;;6.28;;
24030;SDS011;12240;51.142;22.486;2023-04-25T00:45:09;12.48;;;6.50;;
24030;SDS011;12240;51.142;22.486;2023-04-25T00:47:43;11.00;;;5.45;;
24030;SDS011;12240;51.142;22.486;2023-04-25T00:50:13;10.45;;;5.70;;
24030;SDS011;12240;51.142;22.486;2023-04-25T00:52:42;10.98;;;5.90;;
24030;SDS011;12240;51.142;22.486;2023-04-25T00:55:12;14.50;;;5.82;;
24030;SDS011;12240;51.142;22.486;2023-04-25T00:57:42;10.98;;;6.28;;
24030;SDS011;12240;51.142;22.486;2023-04-25T01:00:11;11.80;;;6.65;;
24030;SDS011;12240;51.142;22.486;2023-04-25T01:02:43;12.95;;;6.05;;
24030;SDS011;12240;51.142;22.486;2023-04-25T01:05:12;13.40;;;6.53;;
24030;SDS011;12240;51.142;22.486;2023-04-25T01:07:41;9.70;;;5.80;;
24030;SDS011;12240;51.142;22.486;2023-04-25T01:10:09;10.70;;;5.55;;
24030;SDS011;12240;51.142;22.486;2023-04-25T01:12:37;12.73;;;6.43;;
24030;SDS011;12240;51.142;22.486;2023-04-25T01:15:06;17.48;;;7.13;;
24030;SDS011;12240;51.142;22.486;2023-04-25T01:17:34;8.75;;;5.50;;
24030;SDS011;12240;51.142;22.486;2023-04-25T01:20:05;9.63;;;5.47;;
24030;SDS011;12240;51.142;22.486;2023-04-25T01:22:37;11.30;;;6.22;;
24030;SDS011;12240;51.142;22.486;2023-04-25T01:25:05;11.35;;;5.65;;
24030;SDS011;12240;51.142;22.486;2023-04-25T01:27:35;10.55;;;6.35;;
24030;SDS011;12240;51.142;22.486;2023-04-25T01:30:05;10.65;;;6.10;;
24030;SDS011;12240;51.142;22.486;2023-04-25T01:32:35;11.77;;;5.97;;
24030;SDS011;12240;51.142;22.486;2023-04-25T01:37:37;11.68;;;5.78;;
24030;SDS011;12240;51.142;22.486;2023-04-25T01:40:11;11.38;;;5.60;;
24030;SDS011;12240;51.142;22.486;2023-04-25T01:42:41;13.05;;;6.65;;
24030;SDS011;12240;51.142;22.486;2023-04-25T01:45:11;16.10;;;6.67;;
24030;SDS011;12240;51.142;22.486;2023-04-25T01:47:40;14.55;;;6.82;;
24030;SDS011;12240;51.142;22.486;2023-04-25T01:50:10;11.77;;;6.55;;
24030;SDS011;12240;51.142;22.486;2023-04-25T01:52:38;15.38;;;6.57;;
24030;SDS011;12240;51.142;22.486;2023-04-25T01:55:07;14.25;;;6.75;;
24030;SDS011;12240;51.142;22.486;2023-04-25T01:57:42;10.65;;;5.97;;
24030;SDS011;12240;51.142;22.486;2023-04-25T02:00:11;12.07;;;6.97;;
24030;SDS011;12240;51.142;22.486;2023-04-25T02:02:39;14.95;;;7.40;;
24030;SDS011;12240;51.142;22.486;2023-04-25T02:05:28;13.13;;;6.82;;
24030;SDS011;12240;51.142;22.486;2023-04-25T02:08:01;11.48;;;6.95;;
24030;SDS011;12240;51.142;22.486;2023-04-25T02:10:29;14.50;;;6.63;;
24030;SDS011;12240;51.142;22.486;2023-04-25T02:13:12;14.32;;;6.75;;
24030;SDS011;12240;51.142;22.486;2023-04-25T02:15:48;13.43;;;6.93;;
24030;SDS011;12240;51.142;22.486;2023-04-25T02:18:19;11.50;;;6.38;;
24030;SDS011;12240;51.142;22.486;2023-04-25T02:20:48;16.02;;;6.50;;
24030;SDS011;12240;51.142;22.486;2023-04-25T02:23:16;12.55;;;6.25;;
24030;SDS011;12240;51.142;22.486;2023-04-25T02:25:46;10.50;;;6.40;;
24030;SDS011;12240;51.142;22.486;2023-04-25T02:28:14;15.13;;;6.28;;
24030;SDS011;12240;51.142;22.486;2023-04-25T02:30:42;10.15;;;6.05;;
24030;SDS011;12240;51.142;22.486;2023-04-25T02:33:10;11.73;;;5.45;;
24030;SDS011;12240;51.142;22.486;2023-04-25T02:35:39;12.82;;;6.18;;
24030;SDS011;12240;51.142;22.486;2023-04-25T02:38:07;12.10;;;6.78;;
24030;SDS011;12240;51.142;22.486;2023-04-25T02:40:35;12.38;;;6.47;;
24030;SDS011;12240;51.142;22.486;2023-04-25T02:43:03;14.63;;;6.22;;
24030;SDS011;12240;51.142;22.486;2023-04-25T02:45:31;11.55;;;6.38;;
24030;SDS011;12240;51.142;22.486;2023-04-25T02:47:59;17.25;;;8.13;;
24030;SDS011;12240;51.142;22.486;2023-04-25T02:50:30;19.25;;;8.68;;
24030;SDS011;12240;51.142;22.486;2023-04-25T02:52:59;18.42;;;8.73;;
24030;SDS011;12240;51.142;22.486;2023-04-25T02:55:34;17.83;;;8.45;;
24030;SDS011;12240;51.142;22.486;2023-04-25T02:58:04;17.73;;;8.23;;
24030;SDS011;12240;51.142;22.486;2023-04-25T03:00:42;30.67;;;10.10;;
24030;SDS011;12240;51.142;22.486;2023-04-25T03:03:12;17.08;;;7.90;;
24030;SDS011;12240;51.142;22.486;2023-04-25T03:05:45;19.20;;;8.10;;
24030;SDS011;12240;51.142;22.486;2023-04-25T03:08:17;14.02;;;6.78;;
24030;SDS011;12240;51.142;22.486;2023-04-25T03:10:46;16.38;;;7.47;;
24030;SDS011;12240;51.142;22.486;2023-04-25T03:13:15;14.13;;;7.72;;
24030;SDS011;12240;51.142;22.486;2023-04-25T03:15:43;18.92;;;8.50;;
24030;SDS011;12240;51.142;22.486;2023-04-25T03:18:11;18.13;;;8.20;;
24030;SDS011;12240;51.142;22.486;2023-04-25T03:20:40;18.35;;;8.40;;
24030;SDS011;12240;51.142;22.486;2023-04-25T03:23:08;18.42;;;7.97;;
24030;SDS011;12240;51.142;22.486;2023-04-25T03:25:39;17.87;;;8.40;;
24030;SDS011;12240;51.142;22.486;2023-04-25T03:28:08;18.95;;;8.50;;
24030;SDS011;12240;51.142;22.486;2023-04-25T03:30:36;20.70;;;8.38;;
24030;SDS011;12240;51.142;22.486;2023-04-25T03:33:04;20.40;;;10.43;;
24030;SDS011;12240;51.142;22.486;2023-04-25T03:35:32;17.92;;;8.90;;
24030;SDS011;12240;51.142;22.486;2023-04-25T03:38:00;19.02;;;7.85;;
24030;SDS011;12240;51.142;22.486;2023-04-25T03:40:33;14.70;;;7.72;;
24030;SDS011;12240;51.142;22.486;2023-04-25T03:43:14;13.83;;;7.10;;
24030;SDS011;12240;51.142;22.486;2023-04-25T03:45:49;16.77;;;8.45;;
24030;SDS011;12240;51.142;22.486;2023-04-25T03:48:20;17.33;;;8.20;;
24030;SDS011;12240;51.142;22.486;2023-04-25T03:50:49;19.70;;;9.95;;
24030;SDS011;12240;51.142;22.486;2023-04-25T03:53:17;15.10;;;7.00;;
24030;SDS011;12240;51.142;22.486;2023-04-25T03:56:05;14.93;;;7.75;;
24030;SDS011;12240;51.142;22.486;2023-04-25T03:58:36;19.52;;;7.68;;
24030;SDS011;12240;51.142;22.486;2023-04-25T04:01:08;15.00;;;7.18;;
24030;SDS011;12240;51.142;22.486;2023-04-25T04:03:38;14.55;;;6.82;;
24030;SDS011;12240;51.142;22.486;2023-04-25T04:06:08;12.73;;;6.70;;
24030;SDS011;12240;51.142;22.486;2023-04-25T04:08:40;12.55;;;6.80;;
24030;SDS011;12240;51.142;22.486;2023-04-25T04:11:09;12.63;;;6.65;;
24030;SDS011;12240;51.142;22.486;2023-04-25T04:13:38;16.88;;;9.35;;
24030;SDS011;12240;51.142;22.486;2023-04-25T04:16:07;17.95;;;8.98;;
24030;SDS011;12240;51.142;22.486;2023-04-25T04:18:35;16.13;;;7.57;;
24030;SDS011;12240;51.142;22.486;2023-04-25T04:21:03;11.98;;;6.25;;
24030;SDS011;12240;51.142;22.486;2023-04-25T04:23:34;11.35;;;6.63;;
24030;SDS011;12240;51.142;22.486;2023-04-25T04:26:06;12.73;;;6.57;;
24030;SDS011;12240;51.142;22.486;2023-04-25T04:28:38;21.05;;;8.48;;
24030;SDS011;12240;51.142;22.486;2023-04-25T04:31:21;11.13;;;6.55;;
24030;SDS011;12240;51.142;22.486;2023-04-25T04:33:52;13.75;;;6.45;;
24030;SDS011;12240;51.142;22.486;2023-04-25T04:36:21;12.35;;;6.50;;
24030;SDS011;12240;51.142;22.486;2023-04-25T04:38:51;13.50;;;6.97;;
24030;SDS011;12240;51.142;22.486;2023-04-25T04:41:31;15.55;;;7.35;;
24030;SDS011;12240;51.142;22.486;2023-04-25T04:44:34;13.18;;;6.63;;
24030;SDS011;12240;51.142;22.486;2023-04-25T04:47:24;11.00;;;6.78;;
24030;SDS011;12240;51.142;22.486;2023-04-25T04:50:16;13.27;;;6.45;;
24030;SDS011;12240;51.142;22.486;2023-04-25T04:53:05;13.60;;;6.60;;
24030;SDS011;12240;51.142;22.486;2023-04-25T04:55:49;11.75;;;6.90;;
24030;SDS011;12240;51.142;22.486;2023-04-25T04:58:36;10.85;;;5.50;;
24030;SDS011;12240;51.142;22.486;2023-04-25T05:01:18;13.82;;;6.38;;
24030;SDS011;12240;51.142;22.486;2023-04-25T05:03:56;13.13;;;6.85;;
24030;SDS011;12240;51.142;22.486;2023-04-25T05:06:47;13.77;;;7.13;;
24030;SDS011;12240;51.142;22.486;2023-04-25T05:09:30;10.23;;;6.20;;
24030;SDS011;12240;51.142;22.486;2023-04-25T05:12:22;9.40;;;5.88;;
24030;SDS011;12240;51.142;22.486;2023-04-25T05:15:00;9.43;;;5.18;;
24030;SDS011;12240;51.142;22.486;2023-04-25T05:17:49;7.47;;;4.93;;
24030;SDS011;12240;51.142;22.486;2023-04-25T05:20:31;11.68;;;5.63;;
24030;SDS011;12240;51.142;22.486;2023-04-25T05:23:18;9.45;;;5.60;;
24030;SDS011;12240;51.142;22.486;2023-04-25T05:26:12;11.20;;;6.03;;
24030;SDS011;12240;51.142;22.486;2023-04-25T05:29:00;10.65;;;6.13;;
24030;SDS011;12240;51.142;22.486;2023-04-25T05:31:57;15.90;;;7.13;;
24030;SDS011;12240;51.142;22.486;2023-04-25T05:34:26;11.00;;;6.10;;
24030;SDS011;12240;51.142;22.486;2023-04-25T05:37:00;10.55;;;6.47;;
24030;SDS011;12240;51.142;22.486;2023-04-25T05:39:30;9.50;;;6.00;;
24030;SDS011;12240;51.142;22.486;2023-04-25T05:42:13;10.98;;;6.00;;
24030;SDS011;12240;51.142;22.486;2023-04-25T05:45:07;12.52;;;5.65;;
24030;SDS011;12240;51.142;22.486;2023-04-25T05:47:45;10.30;;;5.88;;
24030;SDS011;12240;51.142;22.486;2023-04-25T05:50:45;9.18;;;5.80;;
24030;SDS011;12240;51.142;22.486;2023-04-25T05:53:34;12.93;;;5.93;;
24030;SDS011;12240;51.142;22.486;2023-04-25T05:56:03;8.77;;;5.85;;
24030;SDS011;12240;51.142;22.486;2023-04-25T05:58:31;11.00;;;6.00;;
24030;SDS011;12240;51.142;22.486;2023-04-25T06:01:00;11.50;;;6.00;;
24030;SDS011;12240;51.142;22.486;2023-04-25T06:03:30;11.48;;;6.03;;
24030;SDS011;12240;51.142;22.486;2023-04-25T06:05:58;11.35;;;5.90;;
24030;SDS011;12240;51.142;22.486;2023-04-25T06:08:26;11.13;;;6.57;;
24030;SDS011;12240;51.142;22.486;2023-04-25T06:10:54;12.10;;;5.60;;
24030;SDS011;12240;51.142;22.486;2023-04-25T06:13:23;10.93;;;5.32;;
24030;SDS011;12240;51.142;22.486;2023-04-25T06:15:52;9.00;;;5.43;;
24030;SDS011;12240;51.142;22.486;2023-04-25T06:18:20;11.38;;;6.15;;
24030;SDS011;12240;51.142;22.486;2023-04-25T06:20:49;16.88;;;6.13;;
24030;SDS011;12240;51.142;22.486;2023-04-25T06:23:18;12.60;;;6.38;;
24030;SDS011;12240;51.142;22.486;2023-04-25T06:25:58;12.60;;;5.90;;
24030;SDS011;12240;51.142;22.486;2023-04-25T06:28:27;14.93;;;7.03;;
24030;SDS011;12240;51.142;22.486;2023-04-25T06:30:56;9.75;;;5.90;;
24030;SDS011;12240;51.142;22.486;2023-04-25T06:33:24;10.63;;;6.18;;
24030;SDS011;12240;51.142;22.486;2023-04-25T06:35:53;10.35;;;6.50;;
24030;SDS011;12240;51.142;22.486;2023-04-25T06:40:56;9.73;;;5.30;;
24030;SDS011;12240;51.142;22.486;2023-04-25T06:43:27;10.60;;;5.93;;
24030;SDS011;12240;51.142;22.486;2023-04-25T06:46:24;11.77;;;6.65;;
24030;SDS011;12240;51.142;22.486;2023-04-25T06:48:57;11.38;;;6.18;;
24030;SDS011;12240;51.142;22.486;2023-04-25T06:51:25;10.10;;;5.95;;
24030;SDS011;12240;51.142;22.486;2023-04-25T06:56:34;9.32;;;5.07;;
24030;SDS011;12240;51.142;22.486;2023-04-25T06:59:11;11.35;;;6.25;;
24030;SDS011;12240;51.142;22.486;2023-04-25T07:01:40;9.00;;;5.70;;
24030;SDS011;12240;51.142;22.486;2023-04-25T07:04:14;10.98;;;6.43;;
24030;SDS011;12240;51.142;22.486;2023-04-25T07:06:50;8.93;;;5.35;;
24030;SDS011;12240;51.142;22.486;2023-04-25T07:09:24;11.93;;;6.63;;
24030;SDS011;12240;51.142;22.486;2023-04-25T07:11:52;12.68;;;6.28;;
24030;SDS011;12240;51.142;22.486;2023-04-25T07:14:20;12.05;;;6.65;;
24030;SDS011;12240;51.142;22.486;2023-04-25T07:16:49;14.20;;;6.70;;
24030;SDS011;12240;51.142;22.486;2023-04-25T07:19:18;11.55;;;6.75;;
24030;SDS011;12240;51.142;22.486;2023-04-25T07:21:47;11.02;;;6.40;;
24030;SDS011;12240;51.142;22.486;2023-04-25T07:24:15;11.38;;;6.50;;
24030;SDS011;12240;51.142;22.486;2023-04-25T07:26:46;12.10;;;6.43;;
24030;SDS011;12240;51.142;22.486;2023-04-25T07:29:22;13.73;;;6.53;;
24030;SDS011;12240;51.142;22.486;2023-04-25T07:31:51;10.05;;;6.22;;
24030;SDS011;12240;51.142;22.486;2023-04-25T07:34:21;12.80;;;7.10;;
24030;SDS011;12240;51.142;22.486;2023-04-25T07:36:50;11.98;;;7.07;;
24030;SDS011;12240;51.142;22.486;2023-04-25T07:39:21;14.63;;;7.43;;
24030;SDS011;12240;51.142;22.486;2023-04-25T07:41:51;11.02;;;6.60;;
24030;SDS011;12240;51.142;22.486;2023-04-25T07:44:25;11.60;;;6.30;;
24030;SDS011;12240;51.142;22.486;2023-04-25T07:46:54;12.20;;;6.70;;
24030;SDS011;12240;51.142;22.486;2023-04-25T07:49:23;13.15;;;6.88;;
24030;SDS011;12240;51.142;22.486;2023-04-25T07:51:51;11.40;;;6.15;;
24030;SDS011;12240;51.142;22.486;2023-04-25T07:54:20;10.63;;;6.40;;
24030;SDS011;12240;51.142;22.486;2023-04-25T07:56:56;9.20;;;5.57;;
24030;SDS011;12240;51.142;22.486;2023-04-25T07:59:29;10.68;;;5.40;;
24030;SDS011;12240;51.142;22.486;2023-04-25T08:02:00;8.75;;;5.93;;
24030;SDS011;12240;51.142;22.486;2023-04-25T08:04:30;7.25;;;4.45;;
24030;SDS011;12240;51.142;22.486;2023-04-25T08:07:04;8.15;;;3.70;;
24030;SDS011;12240;51.142;22.486;2023-04-25T08:09:48;5.25;;;2.85;;
24030;SDS011;12240;51.142;22.486;2023-04-25T08:12:23;5.40;;;3.20;;
24030;SDS011;12240;51.142;22.486;2023-04-25T08:14:52;4.90;;;2.60;;
24030;SDS011;12240;51.142;22.486;2023-04-25T08:17:23;4.15;;;2.70;;
24030;SDS011;12240;51.142;22.486;2023-04-25T08:19:51;6.55;;;3.17;;
24030;SDS011;12240;51.142;22.486;2023-04-25T08:22:25;4.47;;;2.72;;
24030;SDS011;12240;51.142;22.486;2023-04-25T08:25:12;3.95;;;2.38;;
24030;SDS011;12240;51.142;22.486;2023-04-25T08:27:42;4.90;;;2.35;;
24030;SDS011;12240;51.142;22.486;2023-04-25T08:30:12;4.80;;;2.30;;
24030;SDS011;12240;51.142;22.486;2023-04-25T08:32:41;3.25;;;2.08;;
24030;SDS011;12240;51.142;22.486;2023-04-25T08:35:20;4.63;;;2.42;;
24030;SDS011;12240;51.142;22.486;2023-04-25T08:37:50;5.75;;;2.08;;
24030;SDS011;12240;51.142;22.486;2023-04-25T08:40:19;6.45;;;2.38;;
24030;SDS011;12240;51.142;22.486;2023-04-25T08:43:05;7.65;;;2.63;;
24030;SDS011;12240;51.142;22.486;2023-04-25T08:45:40;3.67;;;2.35;;
24030;SDS011;12240;51.142;22.486;2023-04-25T08:48:15;4.70;;;2.65;;
24030;SDS011;12240;51.142;22.486;2023-04-25T08:53:26;3.40;;;2.40;;
24030;SDS011;12240;51.142;22.486;2023-04-25T08:56:00;4.40;;;2.67;;
24030;SDS011;12240;51.142;22.486;2023-04-25T08:58:35;6.68;;;3.70;;
24030;SDS011;12240;51.142;22.486;2023-04-25T09:01:04;5.72;;;3.05;;
24030;SDS011;12240;51.142;22.486;2023-04-25T09:03:43;5.40;;;2.58;;
24030;SDS011;12240;51.142;22.486;2023-04-25T09:06:12;7.45;;;3.67;;
24030;SDS011;12240;51.142;22.486;2023-04-25T09:08:41;4.93;;;2.80;;
24030;SDS011;12240;51.142;22.486;2023-04-25T09:11:10;9.65;;;3.95;;
24030;SDS011;12240;51.142;22.486;2023-04-25T09:13:40;4.43;;;2.65;;
24030;SDS011;12240;51.142;22.486;2023-04-25T09:16:27;10.20;;;3.95;;
24030;SDS011;12240;51.142;22.486;2023-04-25T09:19:25;5.00;;;3.30;;
24030;SDS011;12240;51.142;22.486;2023-04-25T09:22:00;7.10;;;3.92;;
24030;SDS011;12240;51.142;22.486;2023-04-25T09:24:35;4.95;;;3.33;;
24030;SDS011;12240;51.142;22.486;2023-04-25T09:27:12;5.20;;;2.72;;
24030;SDS011;12240;51.142;22.486;2023-04-25T09:29:49;3.80;;;2.40;;
24030;SDS011;12240;51.142;22.486;2023-04-25T09:32:47;4.53;;;2.47;;
24030;SDS011;12240;51.142;22.486;2023-04-25T09:35:26;7.00;;;2.95;;
24030;SDS011;12240;51.142;22.486;2023-04-25T09:37:57;5.00;;;2.53;;
24030;SDS011;12240;51.142;22.486;2023-04-25T09:40:45;5.43;;;2.78;;
24030;SDS011;12240;51.142;22.486;2023-04-25T09:43:25;5.35;;;2.63;;
24030;SDS011;12240;51.142;22.486;2023-04-25T09:45:54;6.47;;;3.08;;
24030;SDS011;12240;51.142;22.486;2023-04-25T09:48:28;5.82;;;3.25;;
24030;SDS011;12240;51.142;22.486;2023-04-25T09:56:15;6.95;;;3.55;;
24030;SDS011;12240;51.142;22.486;2023-04-25T09:58:44;20.95;;;5.70;;
24030;SDS011;12240;51.142;22.486;2023-04-25T10:01:14;5.80;;;3.13;;
24030;SDS011;12240;51.142;22.486;2023-04-25T10:03:58;5.78;;;3.45;;
24030;SDS011;12240;51.142;22.486;2023-04-25T10:06:42;6.55;;;3.80;;
24030;SDS011;12240;51.142;22.486;2023-04-25T10:09:11;7.15;;;3.45;;
24030;SDS011;12240;51.142;22.486;2023-04-25T10:11:42;5.75;;;3.70;;
24030;SDS011;12240;51.142;22.486;2023-04-25T10:14:11;5.90;;;3.22;;
24030;SDS011;12240;51.142;22.486;2023-04-25T10:16:41;6.65;;;3.80;;
24030;SDS011;12240;51.142;22.486;2023-04-25T10:19:10;6.85;;;3.47;;
24030;SDS011;12240;51.142;22.486;2023-04-25T10:21:46;5.75;;;3.35;;
24030;SDS011;12240;51.142;22.486;2023-04-25T10:24:24;6.50;;;3.55;;
24030;SDS011;12240;51.142;22.486;2023-04-25T10:26:52;5.72;;;3.30;;
24030;SDS011;12240;51.142;22.486;2023-04-25T10:29:22;5.63;;;3.33;;
24030;SDS011;12240;51.142;22.486;2023-04-25T10:31:53;7.45;;;3.88;;
24030;SDS011;12240;51.142;22.486;2023-04-25T10:34:37;6.57;;;3.63;;
24030;SDS011;12240;51.142;22.486;2023-04-25T10:37:11;6.72;;;3.70;;
24030;SDS011;12240;51.142;22.486;2023-04-25T10:39:40;9.27;;;4.38;;
24030;SDS011;12240;51.142;22.486;2023-04-25T10:42:09;9.93;;;4.05;;
24030;SDS011;12240;51.142;22.486;2023-04-25T10:44:39;7.82;;;4.05;;
24030;SDS011;12240;51.142;22.486;2023-04-25T10:47:07;6.65;;;3.63;;
24030;SDS011;12240;51.142;22.486;2023-04-25T10:49:37;6.10;;;3.65;;
24030;SDS011;12240;51.142;22.486;2023-04-25T10:54:53;7.80;;;3.85;;
24030;SDS011;12240;51.142;22.486;2023-04-25T10:57:43;7.13;;;4.05;;
24030;SDS011;12240;51.142;22.486;2023-04-25T11:00:17;6.95;;;4.03;;
24030;SDS011;12240;51.142;22.486;2023-04-25T11:02:59;7.85;;;4.25;;
24030;SDS011;12240;51.142;22.486;2023-04-25T11:05:31;7.68;;;4.47;;
24030;SDS011;12240;51.142;22.486;2023-04-25T11:08:13;8.38;;;4.13;;
24030;SDS011;12240;51.142;22.486;2023-04-25T11:10:52;5.43;;;3.00;;
24030;SDS011;12240;51.142;22.486;2023-04-25T11:13:20;5.57;;;4.05;;
24030;SDS011;12240;51.142;22.486;2023-04-25T11:15:51;7.35;;;4.78;;
24030;SDS011;12240;51.142;22.486;2023-04-25T11:18:40;8.48;;;5.03;;
24030;SDS011;12240;51.142;22.486;2023-04-25T11:21:10;8.25;;;4.75;;
24030;SDS011;12240;51.142;22.486;2023-04-25T11:23:39;9.38;;;6.25;;
24030;SDS011;12240;51.142;22.486;2023-04-25T11:26:07;7.63;;;4.95;;
24030;SDS011;12240;51.142;22.486;2023-04-25T11:28:35;6.30;;;4.78;;
24030;SDS011;12240;51.142;22.486;2023-04-25T11:31:04;6.32;;;4.10;;
24030;SDS011;12240;51.142;22.486;2023-04-25T11:33:32;4.35;;;3.70;;
24030;SDS011;12240;51.142;22.486;2023-04-25T11:36:00;6.13;;;4.18;;
24030;SDS011;12240;51.142;22.486;2023-04-25T11:38:29;6.65;;;4.78;;
24030;SDS011;12240;51.142;22.486;2023-04-25T11:40:57;8.50;;;5.07;;
24030;SDS011;12240;51.142;22.486;2023-04-25T11:43:26;11.88;;;6.35;;
24030;SDS011;12240;51.142;22.486;2023-04-25T11:45:55;8.20;;;5.70;;
24030;SDS011;12240;51.142;22.486;2023-04-25T11:48:23;7.85;;;5.00;;
24030;SDS011;12240;51.142;22.486;2023-04-25T11:50:53;7.63;;;5.15;;
24030;SDS011;12240;51.142;22.486;2023-04-25T11:53:23;7.53;;;5.28;;
24030;SDS011;12240;51.142;22.486;2023-04-25T11:55:52;7.80;;;6.22;;
24030;SDS011;12240;51.142;22.486;2023-04-25T11:58:21;6.03;;;4.53;;
24030;SDS011;12240;51.142;22.486;2023-04-25T12:00:49;8.98;;;5.35;;
24030;SDS011;12240;51.142;22.486;2023-04-25T12:03:18;8.10;;;5.53;;
24030;SDS011;12240;51.142;22.486;2023-04-25T12:05:47;10.73;;;6.65;;
24030;SDS011;12240;51.142;22.486;2023-04-25T12:08:17;8.88;;;5.43;;
24030;SDS011;12240;51.142;22.486;2023-04-25T12:10:49;6.57;;;5.40;;
24030;SDS011;12240;51.142;22.486;2023-04-25T12:13:22;5.57;;;4.68;;
24030;SDS011;12240;51.142;22.486;2023-04-25T12:15:55;7.93;;;5.47;;
24030;SDS011;12240;51.142;22.486;2023-04-25T12:18:24;5.93;;;4.78;;
24030;SDS011;12240;51.142;22.486;2023-04-25T12:23:28;6.90;;;5.00;;
24030;SDS011;12240;51.142;22.486;2023-04-25T12:25:58;5.72;;;3.90;;
24030;SDS011;12240;51.142;22.486;2023-04-25T12:28:27;6.75;;;4.70;;
24030;SDS011;12240;51.142;22.486;2023-04-25T12:31:07;7.70;;;6.25;;
24030;SDS011;12240;51.142;22.486;2023-04-25T12:33:37;7.38;;;4.38;;
24030;SDS011;12240;51.142;22.486;2023-04-25T12:36:07;7.00;;;5.38;;
24030;SDS011;12240;51.142;22.486;2023-04-25T12:38:41;7.68;;;5.32;;
24030;SDS011;12240;51.142;22.486;2023-04-25T12:41:10;5.43;;;4.13;;
24030;SDS011;12240;51.142;22.486;2023-04-25T12:43:38;7.93;;;5.32;;
24030;SDS011;12240;51.142;22.486;2023-04-25T12:46:07;9.85;;;6.18;;
24030;SDS011;12240;51.142;22.486;2023-04-25T12:48:35;7.95;;;5.93;;
24030;SDS011;12240;51.142;22.486;2023-04-25T12:51:06;9.63;;;6.38;;
24030;SDS011;12240;51.142;22.486;2023-04-25T12:53:34;8.52;;;6.30;;
24030;SDS011;12240;51.142;22.486;2023-04-25T12:56:04;14.18;;;8.90;;
24030;SDS011;12240;51.142;22.486;2023-04-25T12:58:34;8.25;;;5.95;;
24030;SDS011;12240;51.142;22.486;2023-04-25T13:01:03;7.95;;;4.82;;
24030;SDS011;12240;51.142;22.486;2023-04-25T13:03:32;10.02;;;5.85;;
24030;SDS011;12240;51.142;22.486;2023-04-25T13:06:01;9.13;;;5.65;;
24030;SDS011;12240;51.142;22.486;2023-04-25T13:08:30;6.03;;;4.47;;
24030;SDS011;12240;51.142;22.486;2023-04-25T13:10:58;8.60;;;6.07;;
24030;SDS011;12240;51.142;22.486;2023-04-25T13:13:27;9.27;;;5.30;;
24030;SDS011;12240;51.142;22.486;2023-04-25T13:15:57;7.05;;;4.43;;
24030;SDS011;12240;51.142;22.486;2023-04-25T13:18:25;8.85;;;5.15;;
24030;SDS011;12240;51.142;22.486;2023-04-25T13:20:54;9.50;;;5.32;;
24030;SDS011;12240;51.142;22.486;2023-04-25T13:23:24;9.70;;;6.40;;
24030;SDS011;12240;51.142;22.486;2023-04-25T13:25:54;10.18;;;6.28;;
24030;SDS011;12240;51.142;22.486;2023-04-25T13:28:24;8.20;;;4.90;;
24030;SDS011;12240;51.142;22.486;2023-04-25T13:30:52;12.32;;;6.80;;
24030;SDS011;12240;51.142;22.486;2023-04-25T13:33:21;5.88;;;3.67;;
24030;SDS011;12240;51.142;22.486;2023-04-25T13:35:49;8.60;;;5.78;;
24030;SDS011;12240;51.142;22.486;2023-04-25T13:38:21;8.45;;;5.20;;
24030;SDS011;12240;51.142;22.486;2023-04-25T13:40:51;11.90;;;5.90;;
24030;SDS011;12240;51.142;22.486;2023-04-25T13:43:20;9.15;;;5.20;;
24030;SDS011;12240;51.142;22.486;2023-04-25T13:45:49;10.93;;;5.47;;
24030;SDS011;12240;51.142;22.486;2023-04-25T13:48:18;9.50;;;5.53;;
24030;SDS011;12240;51.142;22.486;2023-04-25T13:50:47;9.63;;;5.82;;
24030;SDS011;12240;51.142;22.486;2023-04-25T13:53:15;11.40;;;6.00;;
24030;SDS011;12240;51.142;22.486;2023-04-25T13:55:43;10.25;;;6.78;;
24030;SDS011;12240;51.142;22.486;2023-04-25T13:58:12;11.93;;;6.18;;
24030;SDS011;12240;51.142;22.486;2023-04-25T14:00:40;9.20;;;5.63;;
24030;SDS011;12240;51.142;22.486;2023-04-25T14:03:10;9.50;;;5.25;;
24030;SDS011;12240;51.142;22.486;2023-04-25T14:05:38;9.57;;;5.47;;
24030;SDS011;12240;51.142;22.486;2023-04-25T14:08:07;11.35;;;5.63;;
24030;SDS011;12240;51.142;22.486;2023-04-25T14:10:37;11.80;;;5.53;;
24030;SDS011;12240;51.142;22.486;2023-04-25T14:13:05;10.05;;;5.82;;
24030;SDS011;12240;51.142;22.486;2023-04-25T14:15:36;9.57;;;6.30;;
24030;SDS011;12240;51.142;22.486;2023-04-25T14:18:05;7.45;;;4.63;;
24030;SDS011;12240;51.142;22.486;2023-04-25T14:20:33;11.65;;;6.97;;
24030;SDS011;12240;51.142;22.486;2023-04-25T14:23:02;9.05;;;5.70;;
24030;SDS011;12240;51.142;22.486;2023-04-25T14:25:30;8.38;;;5.22;;
24030;SDS011;12240;51.142;22.486;2023-04-25T14:27:58;11.85;;;6.10;;
24030;SDS011;12240;51.142;22.486;2023-04-25T14:30:26;9.95;;;6.30;;
24030;SDS011;12240;51.142;22.486;2023-04-25T14:32:57;9.63;;;5.82;;
24030;SDS011;12240;51.142;22.486;2023-04-25T14:35:26;9.48;;;6.22;;
24030;SDS011;12240;51.142;22.486;2023-04-25T14:37:54;9.00;;;5.75;;
24030;SDS011;12240;51.142;22.486;2023-04-25T14:40:23;9.63;;;5.57;;
24030;SDS011;12240;51.142;22.486;2023-04-25T14:42:53;10.80;;;6.38;;
24030;SDS011;12240;51.142;22.486;2023-04-25T14:45:23;8.45;;;5.15;;
24030;SDS011;12240;51.142;22.486;2023-04-25T14:47:52;12.90;;;7.65;;
24030;SDS011;12240;51.142;22.486;2023-04-25T14:50:20;11.75;;;7.28;;
24030;SDS011;12240;51.142;22.486;2023-04-25T14:52:48;11.98;;;6.75;;
24030;SDS011;12240;51.142;22.486;2023-04-25T14:55:17;11.75;;;7.75;;
24030;SDS011;12240;51.142;22.486;2023-04-25T14:57:45;9.82;;;6.07;;
24030;SDS011;12240;51.142;22.486;2023-04-25T15:00:13;14.55;;;7.47;;
24030;SDS011;12240;51.142;22.486;2023-04-25T15:02:43;13.32;;;7.57;;
24030;SDS011;12240;51.142;22.486;2023-04-25T15:05:11;12.27;;;6.25;;
24030;SDS011;12240;51.142;22.486;2023-04-25T15:07:41;14.45;;;8.80;;
24030;SDS011;12240;51.142;22.486;2023-04-25T15:10:09;15.07;;;8.27;;
24030;SDS011;12240;51.142;22.486;2023-04-25T15:12:43;12.88;;;7.57;;
24030;SDS011;12240;51.142;22.486;2023-04-25T15:15:14;12.20;;;6.80;;